Time;durP1;ratioP1;P1;durP2;ratioP2;P2;SDS_P1;SDS_P2;PMS_P1;PMS_P2;Temp;Humidity;BMP_temperature;BMP_pressure;BME280_temperature;BME280_humidity;BME280_pressure;Samples;Min_cycle;Max_cycle;Signal;HPM_P1;HPM_P2
2022/11/05 00:16:58;;;;;;;0.40;0.40;;;21.00;63.00;;;21.04;45.91;94349.63;5062060;28;20180;-76
2022/11/05 00:19:25;;;;;;;0.50;0.50;;;21.00;63.10;;;21.05;46.18;94365.34;5042798;28;20192;-76
2022/11/05 00:27:25;;;;;;;0.40;0.40;;;20.90;63.00;;;21.03;45.90;94364.84;5045273;28;20198;-76
2022/11/05 00:29:52;;;;;;;0.40;0.40;;;20.90;63.00;;;21.00;45.95;94368.03;5042475;28;20201;-76
2022/11/05 00:32:21;;;;;;;0.50;0.50;;;20.90;63.00;;;21.01;45.82;94369.63;5043042;28;20207;-76
2022/11/05 00:34:48;;;;;;;0.50;0.50;;;21.00;63.10;;;20.92;45.89;94353.41;5042489;28;20200;-76
2022/11/05 00:37:15;;;;;;;0.40;0.40;;;20.90;63.00;;;21.06;45.99;94379.47;5058166;28;20209;-76
2022/11/05 00:39:43;;;;;;;0.50;0.50;;;20.90;63.00;;;21.04;45.78;94377.06;5042222;28;20219;-76
2022/11/05 00:45:02;;;;;;;0.30;0.30;;;20.90;63.00;;;21.05;46.16;94391.22;5059280;28;20230;-76
2022/11/05 00:50:37;;;;;;;0.40;0.40;;;21.00;63.10;;;20.99;46.14;94393.09;4984286;28;20213;-76
2022/11/05 00:53:04;;;;;;;0.43;0.43;;;20.90;63.00;;;21.04;45.86;94408.28;4995741;28;20198;-76
2022/11/05 00:55:41;;;;;;;0.40;0.40;;;20.90;63.00;;;21.04;45.87;94406.41;5018800;28;20260;-76
2022/11/05 00:58:18;;;;;;;0.40;0.40;;;20.90;63.00;;;21.03;45.73;94404.00;5042144;28;20191;-77
2022/11/05 01:00:56;;;;;;;0.30;0.30;;;20.90;63.00;;;21.02;46.14;94399.75;5041911;28;20202;-77
2022/11/05 01:03:30;;;;;;;0.40;0.40;;;20.90;63.00;;;20.94;46.09;94393.09;5025564;28;20253;-77
2022/11/05 01:06:25;;;;;;;0.40;0.40;;;20.90;63.00;;;21.01;45.78;94400.84;5025559;28;20193;-76
2022/11/05 01:08:54;;;;;;;0.50;0.50;;;20.90;63.00;;;21.01;45.81;94398.97;5055218;28;20558;-76
2022/11/05 01:11:35;;;;;;;0.47;0.47;;;20.90;63.10;;;21.02;45.73;94394.41;5058177;28;20224;-77
2022/11/05 01:14:12;;;;;;;0.32;0.32;;;20.90;63.00;;;21.00;45.56;94396.56;5041791;28;20186;-76
2022/11/05 01:16:40;;;;;;;0.65;0.65;;;20.90;63.00;;;21.01;46.01;94396.28;5025079;28;20214;-77
2022/11/05 01:19:09;;;;;;;0.30;0.30;;;20.90;63.10;;;21.01;45.79;94409.63;5058110;28;20222;-76
2022/11/05 01:21:36;;;;;;;0.50;0.50;;;20.90;63.10;;;21.02;45.68;94410.41;5058319;28;20332;-76
2022/11/05 01:24:04;;;;;;;0.50;0.50;;;20.90;63.10;;;20.95;45.88;94400.03;5042029;28;20229;-76
2022/11/05 01:26:31;;;;;;;0.30;0.30;;;20.90;63.10;;;20.92;45.98;94397.91;5041585;28;20208;-76
2022/11/05 01:28:59;;;;;;;0.40;0.40;;;20.90;63.10;;;20.93;45.97;94402.16;5041458;28;20217;-76
2022/11/05 01:31:27;;;;;;;0.40;0.40;;;20.90;63.10;;;21.01;46.00;94406.94;5074721;28;20214;-77
2022/11/05 01:33:54;;;;;;;0.55;0.55;;;20.90;63.10;;;21.02;46.10;94413.06;5075372;28;20193;-77
2022/11/05 01:36:21;;;;;;;0.45;0.45;;;20.90;63.10;;;20.94;45.71;94395.75;5041604;28;20215;-76
2022/11/05 01:38:49;;;;;;;0.40;0.40;;;20.90;63.10;;;21.02;46.01;94402.41;5041267;28;20203;-76
2022/11/05 01:41:16;;;;;;;0.40;0.40;;;20.90;63.00;;;21.01;45.99;94395.50;5041172;28;20237;-77
2022/11/05 01:43:55;;;;;;;0.50;0.50;;;20.90;63.10;;;20.99;46.05;94395.75;5041261;28;20200;-76
2022/11/05 01:46:29;;;;;;;0.47;0.47;;;20.90;63.10;;;20.99;46.17;94406.41;5041450;28;20251;-77
2022/11/05 01:49:08;;;;;;;0.47;0.47;;;20.90;63.10;;;20.97;45.85;94399.75;5041387;28;20185;-77
2022/11/05 01:51:35;;;;;;;0.45;0.45;;;20.90;63.10;;;20.95;45.91;94392.03;5058035;28;20626;-77
2022/11/05 01:54:08;;;;;;;0.47;0.47;;;20.90;63.10;;;21.00;45.51;94404.56;5057480;28;20195;-77
2022/11/05 01:57:01;;;;;;;0.40;0.40;;;20.90;63.00;;;20.97;45.54;94415.75;5025066;28;20226;-76
2022/11/05 01:59:38;;;;;;;0.43;0.43;;;20.90;63.10;;;20.96;45.49;94422.97;5040958;28;20206;-76
2022/11/05 02:02:07;;;;;;;0.47;0.47;;;20.90;63.10;;;20.99;45.91;94434.94;5057380;28;20198;-77
2022/11/05 02:04:52;;;;;;;0.40;0.40;;;20.90;63.00;;;20.97;45.98;94447.75;5024820;28;20191;-76
2022/11/05 02:07:22;;;;;;;0.40;0.40;;;20.90;63.10;;;20.92;45.90;94454.69;5057435;28;20195;-77
2022/11/05 02:10:03;;;;;;;0.57;0.57;;;20.90;63.10;;;20.89;45.71;94439.22;5057818;28;20203;-77
2022/11/05 02:12:31;;;;;;;0.50;0.50;;;20.90;63.10;;;20.95;45.76;94446.16;5041000;28;20316;-76
2022/11/05 02:14:59;;;;;;;0.40;0.40;;;20.90;63.10;;;20.95;46.03;94442.69;5024414;28;20191;-77
2022/11/05 02:17:50;;;;;;;0.40;0.40;;;20.90;64.00;;;20.95;46.25;94446.16;5057034;28;20277;-77
2022/11/05 02:21:03;;;;;;;0.38;0.38;;;20.80;63.00;;;20.91;45.88;94445.09;5041243;28;20171;-76
2022/11/05 02:24:11;;;;;;;0.52;0.52;;;20.80;63.00;;;20.89;45.95;94443.75;5021124;28;20192;-76
2022/11/05 02:27:06;;;;;;;0.50;0.50;;;20.90;63.10;;;20.89;46.21;94457.88;5053595;28;20196;-77
2022/11/05 02:30:05;;;;;;;0.40;0.40;;;20.90;63.10;;;20.87;45.84;94462.69;5037217;28;20199;-76
2022/11/05 02:32:57;;;;;;;0.40;0.40;;;20.80;63.10;;;20.86;46.03;94452.28;5020759;28;20229;-76
2022/11/05 02:35:40;;;;;;;0.40;0.40;;;20.80;63.00;;;20.86;46.13;94468.28;5037565;28;20196;-76
2022/11/05 02:38:38;;;;;;;0.40;0.40;;;20.80;63.00;;;20.85;45.97;94462.16;5020813;28;20191;-76
2022/11/05 02:41:17;;;;;;;0.50;0.50;;;20.80;63.00;;;20.86;45.82;94460.28;5037382;28;20216;-77
2022/11/05 02:44:12;;;;;;;0.50;0.50;;;20.80;63.10;;;20.85;46.29;94453.34;5037053;28;20202;-76
2022/11/05 02:46:44;;;;;;;0.50;0.50;;;20.80;63.10;;;20.83;46.16;94447.50;5054555;28;20235;-76
2022/11/05 02:49:32;;;;;;;0.40;0.40;;;20.80;63.10;;;20.84;45.75;94452.56;5037177;28;20208;-77
2022/11/05 02:52:34;;;;;;;0.50;0.50;;;20.80;63.10;;;20.82;46.36;94460.00;5037312;28;20199;-76
2022/11/05 02:55:37;;;;;;;0.40;0.40;;;20.80;63.10;;;20.84;46.24;94451.78;5011524;28;20195;-77
2022/11/05 02:58:05;;;;;;;0.40;0.40;;;20.80;63.20;;;20.83;45.82;94452.84;5033629;28;20542;-76
2022/11/05 03:00:51;;;;;;;0.50;0.50;;;20.80;63.10;;;20.83;45.94;94450.16;5022308;28;20611;-76
2022/11/05 03:03:32;;;;;;;0.55;0.55;;;20.80;64.10;;;20.83;45.80;94450.16;5024429;28;20189;-76
2022/11/05 03:06:33;;;;;;;0.60;0.60;;;20.80;63.10;;;20.79;46.08;94445.34;5024665;28;20623;-76
2022/11/05 03:09:31;;;;;;;0.50;0.50;;;20.80;63.10;;;20.79;46.34;94452.56;5040666;28;20193;-77
2022/11/05 03:12:08;;;;;;;0.45;0.45;;;20.80;64.00;;;20.80;46.07;94454.19;5040480;28;20208;-77
2022/11/05 03:15:12;;;;;;;0.47;0.47;;;20.80;63.10;;;20.81;46.32;94457.63;5024413;28;20649;-76
2022/11/05 03:17:52;;;;;;;0.40;0.40;;;20.70;63.00;;;20.79;45.79;94460.56;5041130;28;20296;-76
2022/11/05 03:20:27;;;;;;;0.40;0.40;;;20.80;63.10;;;20.80;46.19;94448.84;5058312;28;20262;-76
2022/11/05 03:23:09;;;;;;;0.40;0.40;;;20.80;63.10;;;20.73;46.25;94440.31;5060553;28;20310;-77
2022/11/05 03:25:46;;;;;;;0.50;0.50;;;20.70;63.10;;;20.74;46.10;94445.38;5044380;28;20229;-76
2022/11/05 03:28:16;;;;;;;0.40;0.40;;;20.70;63.10;;;20.77;46.06;94446.69;5043809;28;20189;-76
2022/11/05 03:30:44;;;;;;;0.50;0.50;;;20.80;63.10;;;20.78;46.39;94453.63;5044674;28;20175;-76
2022/11/05 03:33:19;;;;;;;0.60;0.60;;;20.70;63.10;;;20.78;45.86;94453.63;5060614;28;20216;-76
2022/11/05 03:36:00;;;;;;;0.45;0.45;;;20.70;63.10;;;20.77;46.17;94449.38;5043799;28;20591;-76
2022/11/05 03:38:33;;;;;;;0.50;0.50;;;20.70;63.10;;;20.83;45.92;94464.28;5043707;28;20525;-76
2022/11/05 03:41:06;;;;;;;0.40;0.40;;;20.70;63.10;;;20.82;46.25;94462.69;5043891;28;20255;-77
2022/11/05 03:43:45;;;;;;;0.40;0.40;;;20.70;63.10;;;20.79;46.05;94465.91;5027035;28;20291;-77
2022/11/05 03:46:46;;;;;;;0.40;0.40;;;20.80;64.10;;;20.79;45.92;94474.69;5060365;28;20261;-77
2022/11/05 03:49:23;;;;;;;0.40;0.40;;;20.70;63.10;;;20.82;45.89;94477.88;5043355;28;20187;-76
2022/11/05 03:52:07;;;;;;;0.40;0.40;;;20.70;63.00;;;20.79;46.18;94479.22;5043544;28;20245;-77
2022/11/05 03:54:35;;;;;;;0.40;0.40;;;20.70;63.10;;;20.81;45.98;94473.63;5060006;28;20199;-76
2022/11/05 03:57:24;;;;;;;0.43;0.43;;;20.70;63.10;;;20.80;46.10;94475.50;5059764;28;20195;-76
2022/11/05 03:59:52;;;;;;;0.40;0.40;;;20.70;63.00;;;20.79;45.84;94471.22;5059986;28;20175;-76
2022/11/05 04:02:24;;;;;;;0.43;0.43;;;20.70;63.10;;;20.74;45.83;94471.25;5059836;28;20226;-77
2022/11/05 04:04:53;;;;;;;0.35;0.35;;;20.70;63.10;;;20.80;46.23;94480.81;5043490;28;20266;-76
2022/11/05 04:18:24;;;;;;;0.40;0.40;;;20.70;63.10;;;20.77;45.99;94490.13;5076051;28;20256;-77
2022/11/05 04:26:24;;;;;;;0.40;0.40;;;20.70;63.10;;;20.74;45.98;94497.88;5062174;28;20206;-76
2022/11/05 04:31:49;;;;;;;0.40;0.40;;;20.70;64.00;;;20.75;46.01;94500.28;5055187;28;20223;-76
2022/11/05 04:34:20;;;;;;;0.40;0.40;;;20.70;63.10;;;20.70;45.60;94488.78;5075691;28;20241;-77
2022/11/05 04:36:52;;;;;;;0.60;0.60;;;20.70;63.10;;;20.64;45.67;94485.28;5042940;28;20199;-76
2022/11/05 04:39:20;;;;;;;0.40;0.40;;;20.70;63.10;;;20.66;45.72;94488.50;5042833;28;20272;-77
2022/11/05 04:41:47;;;;;;;0.40;0.40;;;20.70;63.20;;;20.77;46.38;94500.00;5058742;28;20200;-76
2022/11/05 04:44:15;;;;;;;0.40;0.40;;;20.70;63.10;;;20.72;45.73;94481.34;5042470;28;20297;-76
2022/11/05 04:46:43;;;;;;;0.50;0.50;;;20.70;63.10;;;20.66;45.84;94461.84;5075527;28;20196;-76
2022/11/05 04:49:10;;;;;;;0.38;0.38;;;20.70;63.10;;;20.72;46.40;94476.81;5076170;28;20214;-76
2022/11/05 04:51:37;;;;;;;0.40;0.40;;;20.70;63.20;;;20.72;46.08;94478.69;5076103;28;20200;-76
2022/11/05 04:54:04;;;;;;;0.40;0.40;;;20.70;63.10;;;20.77;46.10;94492.00;5058761;28;20580;-77
2022/11/05 04:56:32;;;;;;;0.40;0.40;;;20.70;63.20;;;20.78;46.23;94497.06;5058806;28;20191;-76
2022/11/05 04:58:59;;;;;;;0.47;0.47;;;20.70;63.20;;;20.72;45.71;94495.47;5075978;28;20633;-76
2022/11/05 05:01:26;;;;;;;0.40;0.40;;;20.70;63.20;;;20.68;45.96;94485.56;5058465;28;20195;-76
2022/11/05 05:03:54;;;;;;;0.50;0.50;;;20.70;63.10;;;20.73;46.29;94497.06;5058613;28;20218;-76
2022/11/05 05:06:22;;;;;;;0.40;0.40;;;20.70;63.10;;;20.72;45.91;94492.00;5058623;28;20191;-77
2022/11/05 05:08:50;;;;;;;0.32;0.32;;;20.70;63.10;;;20.78;46.12;94513.06;5058395;28;20197;-76
2022/11/05 05:11:20;;;;;;;0.50;0.50;;;20.70;63.10;;;20.71;46.06;94512.47;5042227;28;20696;-77
2022/11/05 05:13:48;;;;;;;0.40;0.40;;;20.70;63.20;;;20.77;45.92;94514.13;5042615;28;20208;-76
2022/11/05 05:16:22;;;;;;;0.40;0.40;;;20.70;63.10;;;20.73;45.87;94504.28;5075714;28;20218;-76
2022/11/05 05:18:51;;;;;;;0.43;0.43;;;20.70;63.10;;;20.74;45.73;94505.88;5058030;28;20219;-76
2022/11/05 05:21:39;;;;;;;0.40;0.40;;;20.70;63.10;;;20.68;45.88;94497.03;5025530;28;20313;-76
2022/11/05 05:24:17;;;;;;;0.47;0.47;;;20.70;63.10;;;20.69;46.00;94506.66;5044015;28;20265;-77
2022/11/05 05:26:49;;;;;;;0.40;0.40;;;20.70;63.10;;;20.75;45.86;94528.78;5058556;28;20253;-76
2022/11/05 05:29:18;;;;;;;0.50;0.50;;;20.70;63.10;;;20.71;46.20;94527.69;5041640;28;20253;-76
2022/11/05 05:31:45;;;;;;;0.40;0.40;;;20.70;63.10;;;20.73;45.84;94531.72;5057807;28;20194;-76
2022/11/05 05:34:13;;;;;;;0.40;0.40;;;20.70;63.10;;;20.63;46.28;94521.03;5041652;28;20203;-76
2022/11/05 05:36:41;;;;;;;0.40;0.40;;;20.70;63.10;;;20.72;46.31;94545.31;5041631;28;20190;-76
2022/11/05 05:39:11;;;;;;;0.40;0.40;;;20.70;63.10;;;20.68;46.34;94554.84;5057881;28;20196;-76
2022/11/05 05:41:39;;;;;;;0.50;0.50;;;20.70;63.10;;;20.69;46.01;94567.94;5042310;28;20639;-77
2022/11/05 05:44:06;;;;;;;0.57;0.57;;;20.70;63.20;;;20.69;45.74;94577.78;5041628;28;20196;-77
2022/11/05 05:46:34;;;;;;;0.50;0.50;;;20.70;63.10;;;20.71;46.02;94583.66;5041937;28;20219;-77
2022/11/05 05:49:01;;;;;;;0.40;0.40;;;20.70;63.10;;;20.71;46.02;94581.78;5025112;28;20202;-77
2022/11/05 05:51:35;;;;;;;0.40;0.40;;;20.60;63.10;;;20.65;46.15;94580.16;5042169;28;20605;-76
2022/11/05 05:54:03;;;;;;;0.30;0.30;;;20.70;63.10;;;20.72;46.13;94598.63;5057573;28;20210;-76
2022/11/05 05:56:30;;;;;;;0.30;0.30;;;20.70;63.10;;;20.71;46.09;94600.44;5057988;28;20233;-77
2022/11/05 05:59:00;;;;;;;0.40;0.40;;;20.70;63.10;;;20.73;45.77;94608.22;5057857;28;20624;-77
2022/11/05 06:01:28;;;;;;;0.60;0.60;;;20.70;63.10;;;20.72;46.12;94611.94;5024753;28;20205;-76
2022/11/05 06:03:55;;;;;;;0.50;0.50;;;20.70;63.10;;;20.72;46.01;94610.06;5074660;28;20662;-77
2022/11/05 06:06:22;;;;;;;0.50;0.50;;;20.60;63.00;;;20.71;46.18;94621.75;5041246;28;20213;-77
2022/11/05 06:08:49;;;;;;;0.50;0.50;;;20.70;63.10;;;20.68;45.91;94632.94;5057619;28;20187;-77
2022/11/05 06:11:17;;;;;;;0.43;0.43;;;20.60;63.00;;;20.72;46.21;94638.59;5040848;28;20199;-77
2022/11/05 06:13:44;;;;;;;0.50;0.50;;;20.70;63.20;;;20.68;46.23;94635.63;5040723;28;20224;-76
2022/11/05 06:16:12;;;;;;;0.50;0.50;;;20.60;63.10;;;20.71;45.70;94645.75;5040821;28;20298;-76
2022/11/05 06:18:39;;;;;;;0.50;0.50;;;20.60;63.10;;;20.69;46.15;94634.56;5024488;28;20199;-77
2022/11/05 06:21:11;;;;;;;0.50;0.50;;;20.60;63.10;;;20.72;45.79;94641.25;5040901;28;20235;-76
2022/11/05 06:23:40;;;;;;;0.60;0.60;;;20.70;63.20;;;20.70;46.17;94630.03;5041413;28;20184;-77
2022/11/05 06:26:16;;;;;;;0.40;0.40;;;20.60;63.10;;;20.69;45.75;94629.22;5040985;28;20203;-77
2022/11/05 06:28:44;;;;;;;0.30;0.30;;;20.60;63.10;;;20.69;46.22;94636.41;5041087;28;20204;-77
2022/11/05 06:31:13;;;;;;;0.50;0.50;;;20.60;63.00;;;20.65;45.94;94628.13;5040791;28;20202;-77
2022/11/05 06:33:41;;;;;;;0.40;0.40;;;20.60;63.10;;;20.68;45.74;94642.78;5041038;28;20217;-76
2022/11/05 06:36:14;;;;;;;0.40;0.40;;;20.60;63.10;;;20.68;46.11;94656.94;5077128;28;20218;-76
2022/11/05 06:38:42;;;;;;;0.40;0.40;;;20.60;63.00;;;20.62;45.97;94652.66;5044933;28;20629;-76
2022/11/05 06:41:09;;;;;;;0.50;0.50;;;20.60;63.10;;;20.66;46.04;94653.72;5044610;28;20253;-76
2022/11/05 06:43:37;;;;;;;0.40;0.40;;;20.60;63.10;;;20.62;45.80;94650.00;5045019;28;20207;-77
2022/11/05 06:46:05;;;;;;;0.45;0.45;;;20.60;63.10;;;20.62;46.15;94656.09;5044741;28;20290;-76
2022/11/05 06:48:33;;;;;;;0.40;0.40;;;20.60;63.10;;;20.64;45.73;94669.16;5077744;28;20248;-77
2022/11/05 06:51:01;;;;;;;0.57;0.57;;;20.60;63.10;;;20.68;45.78;94677.44;5060975;28;20213;-76
2022/11/05 06:53:29;;;;;;;0.50;0.50;;;20.60;63.10;;;20.68;46.16;94690.75;5044826;28;20557;-76
2022/11/05 06:55:56;;;;;;;0.40;0.40;;;20.60;63.10;;;20.69;46.39;94693.19;5061313;28;20278;-77
2022/11/05 06:58:24;;;;;;;0.43;0.43;;;20.60;63.10;;;20.64;46.26;94690.47;5061681;28;20226;-77
2022/11/05 07:00:52;;;;;;;0.55;0.55;;;20.60;63.10;;;20.69;45.74;94692.38;5078719;28;20187;-77
2022/11/05 07:03:21;;;;;;;0.40;0.40;;;20.60;63.10;;;20.69;46.23;94695.03;5044518;28;20202;-76
2022/11/05 07:05:51;;;;;;;0.40;0.40;;;20.60;63.10;;;20.64;45.76;94682.50;5044654;28;20210;-77
2022/11/05 07:08:19;;;;;;;0.43;0.43;;;20.60;63.10;;;20.62;45.86;94688.09;5044552;28;20183;-77
2022/11/05 07:10:47;;;;;;;0.50;0.50;;;20.60;63.10;;;20.62;46.19;94688.09;5061038;28;20657;-77
2022/11/05 07:13:14;;;;;;;0.40;0.40;;;20.60;63.10;;;20.66;46.17;94691.03;5027876;28;20683;-76
2022/11/05 07:15:43;;;;;;;0.50;0.50;;;20.60;63.10;;;20.68;45.85;94704.09;5044616;28;20636;-76
2022/11/05 07:18:10;;;;;;;0.40;0.40;;;20.60;63.10;;;20.69;45.91;94705.69;5060818;28;20534;-76
2022/11/05 07:20:38;;;;;;;0.40;0.40;;;20.60;64.00;;;20.64;45.86;94693.16;5043818;28;20200;-77
2022/11/05 07:23:12;;;;;;;0.50;0.50;;;20.60;63.10;;;20.66;46.14;94698.25;5044615;28;20526;-77
2022/11/05 07:25:42;;;;;;;0.40;0.40;;;20.60;63.10;;;20.68;46.15;94709.41;5044484;28;20210;-76
2022/11/05 07:28:10;;;;;;;0.50;0.50;;;20.60;63.10;;;20.68;46.20;94699.56;5044595;28;20208;-77
2022/11/05 07:30:38;;;;;;;0.38;0.38;;;20.60;63.00;;;20.64;46.14;94701.13;5044270;28;20203;-77
2022/11/05 07:33:06;;;;;;;0.50;0.50;;;20.60;63.00;;;20.68;45.91;94702.25;5044028;28;20223;-76
2022/11/05 07:35:34;;;;;;;0.43;0.43;;;20.60;63.10;;;20.69;46.24;94701.19;5061219;28;20317;-77
2022/11/05 07:38:02;;;;;;;0.50;0.50;;;20.60;63.10;;;20.66;46.01;94695.56;5043703;28;20199;-76
2022/11/05 07:40:29;;;;;;;0.45;0.45;;;20.60;63.10;;;20.64;46.09;94693.16;5043437;28;20641;-76
2022/11/05 07:42:59;;;;;;;0.43;0.43;;;20.60;63.10;;;20.70;45.94;94715.31;5043955;28;20234;-78
2022/11/05 07:45:29;;;;;;;0.47;0.47;;;20.60;63.10;;;20.59;45.89;94693.94;5060344;28;20646;-76
2022/11/05 07:47:59;;;;;;;0.50;0.50;;;20.60;63.10;;;20.60;45.68;94702.72;5059919;28;20195;-77
2022/11/05 07:50:30;;;;;;;0.40;0.40;;;20.60;63.00;;;20.66;45.82;94725.69;5043541;28;20596;-76
2022/11/05 07:53:14;;;;;;;0.40;0.40;;;20.60;63.10;;;20.69;45.83;94733.16;5043465;28;20234;-77
2022/11/05 07:55:42;;;;;;;0.30;0.30;;;20.60;63.00;;;20.69;46.22;94740.34;5043475;28;20277;-77
2022/11/05 07:58:10;;;;;;;0.40;0.40;;;20.60;63.10;;;20.69;45.93;94749.16;5043347;28;20537;-77
2022/11/05 08:00:37;;;;;;;0.43;0.43;;;20.60;63.00;;;20.72;45.81;94755.84;5043071;28;20203;-76
2022/11/05 08:03:11;;;;;;;0.40;0.40;;;20.60;64.00;;;20.73;45.85;94765.47;5060325;28;20198;-77
2022/11/05 08:05:43;;;;;;;0.50;0.50;;;20.70;63.10;;;20.72;45.81;94769.97;5060219;28;20174;-77
2022/11/05 08:08:13;;;;;;;0.50;0.50;;;20.70;63.10;;;20.71;45.91;94759.56;5043522;28;20306;-76
2022/11/05 08:10:41;;;;;;;0.40;0.40;;;20.60;63.00;;;20.69;46.10;94753.66;5042911;28;20196;-77
2022/11/05 08:13:10;;;;;;;0.50;0.50;;;20.70;63.10;;;20.73;45.42;94758.25;5059925;28;20207;-77
2022/11/05 08:15:38;;;;;;;0.50;0.50;;;20.70;63.10;;;20.75;46.08;94771.31;5056967;28;20572;-77
2022/11/05 08:18:14;;;;;;;0.40;0.40;;;20.70;63.10;;;20.72;45.66;94761.97;5042998;28;20617;-76
2022/11/05 08:20:43;;;;;;;0.40;0.40;;;20.70;63.10;;;20.76;46.11;94770.25;5059429;28;20194;-77
2022/11/05 08:23:11;;;;;;;0.60;0.60;;;20.70;63.10;;;20.68;46.14;94757.38;5059771;28;20186;-77
2022/11/05 08:25:39;;;;;;;0.40;0.40;;;20.70;63.00;;;20.76;45.66;94768.41;5059842;28;20202;-76
2022/11/05 08:28:10;;;;;;;0.60;0.60;;;20.70;63.10;;;20.69;46.03;94759.00;5059570;28;20213;-76
2022/11/05 08:30:38;;;;;;;0.30;0.30;;;20.70;63.10;;;20.74;45.60;94757.19;5059628;28;20521;-77
2022/11/05 08:33:09;;;;;;;0.40;0.40;;;20.70;63.10;;;20.77;45.73;94755.88;5043036;28;20214;-76
2022/11/05 08:35:38;;;;;;;0.50;0.50;;;20.70;63.00;;;20.76;45.73;94762.25;5043460;28;20211;-77
2022/11/05 08:38:07;;;;;;;0.40;0.40;;;20.70;63.10;;;20.80;45.94;94760.69;5042830;28;20233;-77
2022/11/05 08:40:36;;;;;;;0.50;0.50;;;20.70;63.00;;;20.72;46.00;94756.66;5026950;28;20208;-77
2022/11/05 08:43:09;;;;;;;0.50;0.50;;;20.70;63.00;;;20.80;45.98;94771.38;5043133;28;20230;-76
2022/11/05 08:45:37;;;;;;;0.50;0.50;;;20.70;63.00;;;20.75;45.85;94765.97;5059573;28;20222;-77
2022/11/05 08:48:11;;;;;;;0.40;0.40;;;20.70;63.00;;;20.80;46.16;94766.03;5059208;28;20200;-76
2022/11/05 08:50:39;;;;;;;0.40;0.40;;;20.70;62.90;;;20.76;46.03;94759.59;5075938;28;20183;-77
2022/11/05 08:53:08;;;;;;;0.50;0.50;;;20.70;63.00;;;20.81;45.88;94770.28;5042515;28;20223;-77
2022/11/05 08:55:37;;;;;;;0.45;0.45;;;20.70;63.00;;;20.81;45.88;94783.59;5059853;28;20179;-76
2022/11/05 08:58:11;;;;;;;0.40;0.40;;;20.70;63.00;;;20.82;46.09;94785.22;5025352;28;20207;-76
2022/11/05 09:00:39;;;;;;;0.40;0.40;;;20.70;62.90;;;20.80;45.91;94779.34;5059335;28;20267;-76
2022/11/05 09:03:08;;;;;;;0.50;0.50;;;20.70;63.00;;;20.85;45.89;94791.88;5025914;28;20214;-76
2022/11/05 09:05:38;;;;;;;0.40;0.40;;;20.70;62.90;;;20.84;45.71;94776.97;5043138;28;20194;-76
2022/11/05 09:08:08;;;;;;;0.40;0.40;;;20.70;62.90;;;20.84;45.71;94782.31;5058871;28;20203;-77
2022/11/05 09:10:36;;;;;;;0.40;0.40;;;20.80;63.00;;;20.84;45.48;94788.44;5059212;28;20195;-77
2022/11/05 09:13:05;;;;;;;0.50;0.50;;;20.80;62.90;;;20.84;45.33;94788.44;5058446;28;20214;-76
2022/11/05 09:15:34;;;;;;;0.40;0.40;;;20.80;62.90;;;20.84;45.92;94796.44;5042473;28;20204;-76
2022/11/05 09:18:04;;;;;;;0.50;0.50;;;20.70;62.80;;;20.78;45.99;94790.25;5025880;28;20208;-76
2022/11/05 09:20:32;;;;;;;0.50;0.50;;;20.80;63.00;;;20.82;45.73;94805.75;5042144;28;20191;-76
2022/11/05 09:23:00;;;;;;;0.43;0.43;;;20.80;62.90;;;20.79;45.71;94793.75;5059060;28;20192;-77
2022/11/05 09:25:28;;;;;;;0.40;0.40;;;20.80;62.90;;;20.82;46.09;94809.19;5058494;28;20256;-77
2022/11/05 09:28:09;;;;;;;0.50;0.50;;;20.80;62.90;;;20.85;45.42;94802.53;5042297;28;20206;-77
2022/11/05 09:30:45;;;;;;;0.40;0.40;;;20.80;62.80;;;20.84;46.14;94807.09;5059277;28;20615;-76
2022/11/05 09:33:13;;;;;;;0.50;0.50;;;20.80;62.90;;;20.85;45.98;94815.88;5058498;28;20195;-77
2022/11/05 09:35:41;;;;;;;0.47;0.47;;;20.80;62.90;;;20.81;45.84;94804.13;5041888;28;20283;-77
2022/11/05 09:38:09;;;;;;;0.40;0.40;;;20.80;62.80;;;20.78;45.65;94797.47;5041831;28;20253;-77
2022/11/05 09:40:51;;;;;;;0.47;0.47;;;20.80;62.90;;;20.84;45.87;94817.75;5058540;28;20203;-78
2022/11/05 09:43:23;;;;;;;0.40;0.40;;;20.80;62.80;;;20.84;45.97;94819.63;5058196;28;20197;-76
2022/11/05 09:46:04;;;;;;;0.40;0.40;;;20.80;62.80;;;20.82;45.61;94819.06;5042729;28;20192;-76
2022/11/05 09:48:34;;;;;;;0.40;0.40;;;20.70;62.70;;;20.79;45.83;94810.53;5058662;28;20242;-77
2022/11/05 09:51:05;;;;;;;0.40;0.40;;;20.80;62.80;;;20.84;45.66;94816.97;5058123;28;20199;-76
2022/11/05 09:53:40;;;;;;;0.35;0.35;;;20.70;62.80;;;20.84;46.01;94816.97;5058448;28;20647;-77
2022/11/05 09:56:24;;;;;;;0.32;0.32;;;20.80;62.80;;;20.84;45.78;94833.75;5074834;28;20177;-76
2022/11/05 09:59:00;;;;;;;0.50;0.50;;;20.80;62.80;;;20.84;45.77;94822.28;5059417;28;20669;-76
2022/11/05 10:01:34;;;;;;;0.40;0.40;;;20.80;62.80;;;20.84;45.67;94824.97;5060702;28;20203;-77
2022/11/05 10:04:09;;;;;;;0.43;0.43;;;20.80;62.80;;;20.84;45.69;94828.41;5058524;28;20209;-77
2022/11/05 10:06:47;;;;;;;0.40;0.40;;;20.80;62.80;;;20.83;46.05;94818.81;5039181;28;20202;-76
2022/11/05 10:09:26;;;;;;;0.45;0.45;;;20.80;62.80;;;20.84;46.08;94833.75;5040569;28;20206;-76
2022/11/05 10:12:11;;;;;;;0.40;0.40;;;20.80;62.80;;;20.83;45.54;94842.81;5057594;28;20209;-75
2022/11/05 10:14:50;;;;;;;0.30;0.30;;;20.80;62.80;;;20.82;45.58;94848.41;5057591;28;20214;-77
2022/11/05 10:17:25;;;;;;;0.50;0.50;;;20.80;62.80;;;20.73;45.73;94830.22;5041041;28;20191;-76
2022/11/05 10:20:12;;;;;;;0.45;0.45;;;20.80;62.70;;;20.82;45.61;94849.19;5040827;28;20284;-76
2022/11/05 10:22:39;;;;;;;0.40;0.40;;;20.80;62.80;;;20.82;45.56;94848.41;5057844;28;20285;-76
2022/11/05 10:25:20;;;;;;;0.40;0.40;;;20.80;62.70;;;20.82;45.36;94846.53;5059476;28;20187;-77
2022/11/05 10:27:58;;;;;;;0.50;0.50;;;20.80;62.80;;;20.82;45.22;94846.53;5057877;28;20579;-76
2022/11/05 10:30:25;;;;;;;0.47;0.47;;;20.70;62.70;;;20.81;46.06;94850.25;5040928;28;20206;-75
2022/11/05 10:32:58;;;;;;;0.50;0.50;;;20.70;62.80;;;20.84;46.06;94852.41;5040823;28;20201;-77
2022/11/05 10:35:29;;;;;;;0.40;0.40;;;20.80;62.80;;;20.81;45.60;94854.78;5057251;28;20187;-77
2022/11/05 10:37:56;;;;;;;0.40;0.40;;;20.80;62.80;;;20.82;45.69;94853.72;5056950;28;20227;-76
2022/11/05 10:40:45;;;;;;;0.50;0.50;;;20.80;62.80;;;20.85;45.53;94858.53;5056816;28;20196;-76
2022/11/05 10:43:24;;;;;;;0.40;0.40;;;20.70;62.70;;;20.83;46.10;94850.81;5041100;28;20181;-77
2022/11/05 10:46:41;;;;;;;0.40;0.40;;;20.80;62.80;;;20.81;45.58;94866.25;5057256;28;20176;-76
2022/11/05 10:49:38;;;;;;;0.50;0.50;;;20.80;62.80;;;20.79;45.44;94860.38;5046055;28;20272;-77
2022/11/05 10:52:28;;;;;;;0.45;0.45;;;20.70;62.60;;;20.81;45.84;94854.78;5030194;28;20631;-77
2022/11/05 10:55:00;;;;;;;0.50;0.50;;;20.70;62.60;;;20.75;45.60;94849.44;5056917;28;20302;-77
2022/11/05 10:57:38;;;;;;;0.47;0.47;;;20.80;62.80;;;20.82;45.88;94864.38;5057511;28;20206;-76
2022/11/05 11:00:15;;;;;;;0.50;0.50;;;20.80;62.80;;;20.82;45.46;94862.50;5056639;28;20204;-76
2022/11/05 11:02:51;;;;;;;0.40;0.40;;;20.70;62.70;;;20.83;45.97;94866.00;5040744;28;20297;-77
2022/11/05 11:05:27;;;;;;;0.45;0.45;;;20.80;62.80;;;20.83;45.72;94866.78;5025303;28;20556;-77
2022/11/05 11:08:12;;;;;;;0.35;0.35;;;20.70;62.70;;;20.83;45.92;94866.78;5041422;28;20194;-77
2022/11/05 11:11:04;;;;;;;0.50;0.50;;;20.80;62.80;;;20.83;45.87;94874.00;5057321;28;20195;-77
2022/11/05 11:13:55;;;;;;;0.40;0.40;;;20.80;62.80;;;20.82;45.65;94873.19;5057967;28;20195;-76
2022/11/05 11:16:27;;;;;;;0.40;0.40;;;20.80;62.70;;;20.83;45.96;94866.78;5037044;28;20714;-77
2022/11/05 11:18:59;;;;;;;0.40;0.40;;;20.80;62.70;;;20.83;45.48;94866.78;5056759;28;20187;-77
2022/11/05 11:21:29;;;;;;;0.40;0.40;;;20.80;62.70;;;20.83;45.72;94877.47;5041833;28;20641;-77
2022/11/05 11:24:05;;;;;;;0.40;0.40;;;20.70;62.70;;;20.77;45.43;94868.63;5044399;28;20193;-80
2022/11/05 11:26:37;;;;;;;0.50;0.50;;;20.80;62.80;;;20.84;45.86;94875.59;5044888;28;20183;-76
2022/11/05 11:29:25;;;;;;;0.50;0.50;;;20.70;62.70;;;20.83;45.79;94869.47;5033720;28;20591;-76
2022/11/05 11:31:57;;;;;;;0.50;0.50;;;20.70;62.70;;;20.78;45.77;94862.22;5043541;28;20176;-76
2022/11/05 11:34:37;;;;;;;0.40;0.40;;;20.80;62.80;;;20.79;45.82;94860.38;5024181;28;20220;-77